地図

経路データ

SID SEASON NUMBER BASIN SUBBASIN NAME ISO_TIME NATURE LAT LON WMO_WIND WMO_PRES WMO_AGENCY TRACK_TYPE DIST2LAND LANDFALL IFLAG USA_AGENCY USA_ATCF_ID USA_LAT USA_LON USA_RECORD USA_STATUS USA_WIND USA_PRES USA_SSHS USA_R34_NE USA_R34_SE USA_R34_SW USA_R34_NW USA_R50_NE USA_R50_SE USA_R50_SW USA_R50_NW USA_R64_NE USA_R64_SE USA_R64_SW USA_R64_NW USA_POCI USA_ROCI USA_RMW USA_EYE TOKYO_LAT TOKYO_LON TOKYO_GRADE TOKYO_WIND TOKYO_PRES TOKYO_R50_DIR TOKYO_R50_LONG TOKYO_R50_SHORT TOKYO_R30_DIR TOKYO_R30_LONG TOKYO_R30_SHORT TOKYO_LAND CMA_LAT CMA_LON CMA_CAT CMA_WIND CMA_PRES HKO_LAT HKO_LON HKO_CAT HKO_WIND HKO_PRES NEWDELHI_LAT NEWDELHI_LON NEWDELHI_GRADE NEWDELHI_WIND NEWDELHI_PRES NEWDELHI_CI NEWDELHI_DP NEWDELHI_POCI REUNION_LAT REUNION_LON REUNION_TYPE REUNION_WIND REUNION_PRES REUNION_TNUM REUNION_CI REUNION_RMW REUNION_R34_NE REUNION_R34_SE REUNION_R34_SW REUNION_R34_NW REUNION_R50_NE REUNION_R50_SE REUNION_R50_SW REUNION_R50_NW REUNION_R64_NE REUNION_R64_SE REUNION_R64_SW REUNION_R64_NW BOM_LAT BOM_LON BOM_TYPE BOM_WIND BOM_PRES BOM_TNUM BOM_CI BOM_RMW BOM_R34_NE BOM_R34_SE BOM_R34_SW BOM_R34_NW BOM_R50_NE BOM_R50_SE BOM_R50_SW BOM_R50_NW BOM_R64_NE BOM_R64_SE BOM_R64_SW BOM_R64_NW BOM_ROCI BOM_POCI BOM_EYE BOM_POS_METHOD BOM_PRES_METHOD NADI_LAT NADI_LON NADI_CAT NADI_WIND NADI_PRES WELLINGTON_LAT WELLINGTON_LON WELLINGTON_WIND WELLINGTON_PRES DS824_LAT DS824_LON DS824_STAGE DS824_WIND DS824_PRES TD9636_LAT TD9636_LON TD9636_STAGE TD9636_WIND TD9636_PRES TD9635_LAT TD9635_LON TD9635_WIND TD9635_PRES TD9635_ROCI NEUMANN_LAT NEUMANN_LON NEUMANN_CLASS NEUMANN_WIND NEUMANN_PRES MLC_LAT MLC_LON MLC_CLASS MLC_WIND MLC_PRES USA_GUST BOM_GUST BOM_GUST_PER REUNION_GUST REUNION_GUST_PER USA_SEAHGT USA_SEARAD_NE USA_SEARAD_SE USA_SEARAD_SW USA_SEARAD_NW STORM_SPEED STORM_DIR
1993249N12253 1993 64 EP MM KENNETH 1993-09-05 12:00:00 TS 12.2000 -107.200 25 1007 hurdat_epa main 789 789 O_____________ hurdat_epa EP121993 12.2000 -107.200 TD 25 1007 -1 2 263
1993249N12253 1993 64 EP MM KENNETH 1993-09-05 15:00:00 TS 12.1900 -107.278 main 795 795 P_____________ EP121993 12.1900 -107.278 TD 27 1006 -1 2 270
1993249N12253 1993 64 EP MM KENNETH 1993-09-05 18:00:00 TS 12.2000 -107.400 30 1006 hurdat_epa main 800 800 O_____________ hurdat_epa EP121993 12.2000 -107.400 TD 30 1006 -1 3 280
1993249N12253 1993 64 EP MM KENNETH 1993-09-05 21:00:00 TS 12.2425 -107.592 main 812 802 P_____________ EP121993 12.2425 -107.592 TD 30 1005 -1 4 284
1993249N12253 1993 64 EP MM KENNETH 1993-09-06 00:00:00 TS 12.3000 -107.800 30 1005 hurdat_epa main 814 814 O_____________ hurdat_epa EP121993 12.3000 -107.800 TD 30 1005 -1 4 285
1993249N12253 1993 64 EP MM KENNETH 1993-09-06 03:00:00 TS 12.3350 -107.958 main 827 817 P_____________ EP121993 12.3350 -107.958 TD 32 1004 -1 3 289
1993249N12253 1993 64 EP MM KENNETH 1993-09-06 06:00:00 TS 12.4000 -108.100 35 1004 hurdat_epa main 824 821 O_____________ hurdat_epa EP121993 12.4000 -108.100 TS 35 1004 0 4 307
1993249N12253 1993 64 EP MM KENNETH 1993-09-06 09:00:00 TS 12.5500 -108.250 main 821 810 P_____________ EP121993 12.5500 -108.250 TS 35 1003 0 4 316
1993249N12253 1993 64 EP MM KENNETH 1993-09-06 12:00:00 TS 12.7000 -108.400 35 1003 hurdat_epa main 817 815 O_____________ hurdat_epa EP121993 12.7000 -108.400 TS 35 1003 0 4 304
1993249N12253 1993 64 EP MM KENNETH 1993-09-06 15:00:00 TS 12.7575 -108.558 main 823 823 P_____________ EP121993 12.7575 -108.558 TS 37 1002 0 3 289
1993249N12253 1993 64 EP MM KENNETH 1993-09-06 18:00:00 TS 12.8000 -108.700 40 1002 hurdat_epa main 828 824 O_____________ hurdat_epa EP121993 12.8000 -108.700 TS 40 1002 0 2 299
1993249N12253 1993 64 EP MM KENNETH 1993-09-06 21:00:00 TS 12.8774 -108.778 main 824 814 P_____________ EP121993 12.8774 -108.778 TS 42 1001 0 3 316
1993249N12253 1993 64 EP MM KENNETH 1993-09-07 00:00:00 TS 13.0000 -108.900 45 1000 hurdat_epa main 820 816 O_____________ hurdat_epa EP121993 13.0000 -108.900 TS 45 1000 0 5 307
1993249N12253 1993 64 EP MM KENNETH 1993-09-07 03:00:00 TS 13.1701 -109.177 main 819 813 P_____________ EP121993 13.1701 -109.177 TS 47 998 0 7 304
1993249N12253 1993 64 EP MM KENNETH 1993-09-07 06:00:00 TS 13.4000 -109.500 50 997 hurdat_epa main 820 807 O_____________ hurdat_epa EP121993 13.4000 -109.500 TS 50 997 0 8 314
1993249N12253 1993 64 EP MM KENNETH 1993-09-07 09:00:00 TS 13.6999 -109.743 main 807 803 P_____________ EP121993 13.6999 -109.743 TS 52 995 0 8 321
1993249N12253 1993 64 EP MM KENNETH 1993-09-07 12:00:00 TS 14.0000 -110.000 55 994 hurdat_epa main 803 802 O_____________ hurdat_epa EP121993 14.0000 -110.000 TS 55 994 0 8 313
1993249N12253 1993 64 EP MM KENNETH 1993-09-07 15:00:00 TS 14.2300 -110.335 main 810 809 P_____________ EP121993 14.2300 -110.335 TS 55 993 0 8 301
1993249N12253 1993 64 EP MM KENNETH 1993-09-07 18:00:00 TS 14.4000 -110.700 55 992 hurdat_epa main 825 824 O_____________ hurdat_epa EP121993 14.4000 -110.700 TS 55 992 0 8 293
1993249N12253 1993 64 EP MM KENNETH 1993-09-07 21:00:00 TS 14.5225 -111.058 main 847 847 P_____________ EP121993 14.5225 -111.058 TS 57 990 0 7 286
1993249N12253 1993 64 EP MM KENNETH 1993-09-08 00:00:00 TS 14.6000 -111.400 60 989 hurdat_epa main 863 863 O_____________ hurdat_epa EP121993 14.6000 -111.400 TS 60 989 0 6 283
1993249N12253 1993 64 EP MM KENNETH 1993-09-08 03:00:00 TS 14.6649 -111.700 main 880 880 P_____________ EP121993 14.6649 -111.700 TS 62 988 0 6 280
1993249N12253 1993 64 EP MM KENNETH 1993-09-08 06:00:00 TS 14.7000 -112.000 65 987 hurdat_epa main 905 905 O_____________ hurdat_epa EP121993 14.7000 -112.000 HU 65 987 1 6 275
1993249N12253 1993 64 EP MM KENNETH 1993-09-08 09:00:00 TS 14.7150 -112.342 main 930 930 P_____________ EP121993 14.7150 -112.342 HU 65 987 1 7 270
1993249N12253 1993 64 EP MM KENNETH 1993-09-08 12:00:00 TS 14.7000 -112.700 65 987 hurdat_epa main 960 960 O_____________ hurdat_epa EP121993 14.7000 -112.700 HU 65 987 1 7 265
1993249N12253 1993 64 EP MM KENNETH 1993-09-08 15:00:00 TS 14.6575 -113.058 main 973 973 P_____________ EP121993 14.6575 -113.058 HU 65 987 1 7 262
1993249N12253 1993 64 EP MM KENNETH 1993-09-08 18:00:00 TS 14.6000 -113.400 65 987 hurdat_epa main 995 995 O_____________ hurdat_epa EP121993 14.6000 -113.400 HU 65 987 1 6 260
1993249N12253 1993 64 EP MM KENNETH 1993-09-08 21:00:00 TS 14.5499 -113.700 main 1017 1017 P_____________ EP121993 14.5499 -113.700 HU 65 987 1 6 260
1993249N12253 1993 64 EP MM KENNETH 1993-09-09 00:00:00 TS 14.5000 -114.000 65 987 hurdat_epa main 1029 1029 O_____________ hurdat_epa EP121993 14.5000 -114.000 HU 65 987 1 6 260
1993249N12253 1993 64 EP MM KENNETH 1993-09-09 03:00:00 TS 14.4424 -114.335 main 1053 1053 P_____________ EP121993 14.4424 -114.335 HU 65 987 1 7 262
1993249N12253 1993 64 EP MM KENNETH 1993-09-09 06:00:00 TS 14.4000 -114.700 65 987 hurdat_epa main 1071 1071 O_____________ hurdat_epa EP121993 14.4000 -114.700 HU 65 987 1 7 264
1993249N12253 1993 64 EP MM KENNETH 1993-09-09 09:00:00 TS 14.3700 -115.100 main 1091 1091 P_____________ EP121993 14.3700 -115.100 HU 65 987 1 8 270
1993249N12253 1993 64 EP MM KENNETH 1993-09-09 12:00:00 TS 14.4000 -115.500 65 987 hurdat_epa main 1113 1113 O_____________ hurdat_epa EP121993 14.4000 -115.500 HU 65 987 1 8 282
1993249N12253 1993 64 EP MM KENNETH 1993-09-09 15:00:00 TS 14.5274 -115.865 main 1126 1116 P_____________ EP121993 14.5274 -115.865 HU 67 986 1 7 294
1993249N12253 1993 64 EP MM KENNETH 1993-09-09 18:00:00 TS 14.7000 -116.200 70 986 hurdat_epa main 1125 1122 O_____________ hurdat_epa EP121993 14.7000 -116.200 HU 70 986 1 7 297
1993249N12253 1993 64 EP MM KENNETH 1993-09-09 21:00:00 TS 14.8499 -116.508 main 1134 1125 P_____________ EP121993 14.8499 -116.508 HU 72 985 1 7 297
1993249N12253 1993 64 EP MM KENNETH 1993-09-10 00:00:00 TS 15.0000 -116.800 75 985 hurdat_epa main 1136 1134 O_____________ hurdat_epa EP121993 15.0000 -116.800 HU 75 985 1 7 297
1993249N12253 1993 64 EP MM KENNETH 1993-09-10 03:00:00 TS 15.1425 -117.108 main 1147 1139 P_____________ EP121993 15.1425 -117.108 HU 80 983 1 7 297
1993249N12253 1993 64 EP MM KENNETH 1993-09-10 06:00:00 TS 15.3000 -117.400 85 981 hurdat_epa main 1151 1149 O_____________ hurdat_epa EP121993 15.3000 -117.400 HU 85 981 2 6 303
1993249N12253 1993 64 EP MM KENNETH 1993-09-10 09:00:00 TS 15.4924 -117.658 main 1156 1147 P_____________ EP121993 15.4924 -117.658 HU 92 975 2 6 310
1993249N12253 1993 64 EP MM KENNETH 1993-09-10 12:00:00 TS 15.7000 -117.900 100 970 hurdat_epa main 1155 1154 O_____________ hurdat_epa EP121993 15.7000 -117.900 HU 100 970 3 6 310
1993249N12253 1993 64 EP MM KENNETH 1993-09-10 15:00:00 TS 15.8850 -118.150 main 1162 1154 P_____________ EP121993 15.8850 -118.150 HU 107 962 3 6 310
1993249N12253 1993 64 EP MM KENNETH 1993-09-10 18:00:00 TS 16.1000 -118.400 115 954 hurdat_epa main 1162 1148 O_____________ hurdat_epa EP121993 16.1000 -118.400 HU 115 954 4 7 317
1993249N12253 1993 64 EP MM KENNETH 1993-09-10 21:00:00 TS 16.3924 -118.635 main 1148 1139 P_____________ EP121993 16.3924 -118.635 HU 120 946 4 8 321
1993249N12253 1993 64 EP MM KENNETH 1993-09-11 00:00:00 TS 16.7000 -118.900 125 938 hurdat_epa main 1139 1135 O_____________ hurdat_epa EP121993 16.7000 -118.900 HU 125 938 4 8 315
1993249N12253 1993 64 EP MM KENNETH 1993-09-11 03:00:00 TS 16.9575 -119.235 main 1133 1133 P_____________ EP121993 16.9575 -119.235 HU 127 935 4 8 307
1993249N12253 1993 64 EP MM KENNETH 1993-09-11 06:00:00 TS 17.2000 -119.600 130 932 hurdat_epa main 1143 1140 O_____________ hurdat_epa EP121993 17.2000 -119.600 HU 130 932 4 8 307
1993249N12253 1993 64 EP MM KENNETH 1993-09-11 09:00:00 TS 17.4649 -119.935 main 1140 1140 P_____________ EP121993 17.4649 -119.935 HU 127 932 4 8 307
1993249N12253 1993 64 EP MM KENNETH 1993-09-11 12:00:00 TS 17.7000 -120.300 125 933 hurdat_epa main 1154 1154 O_____________ hurdat_epa EP121993 17.7000 -120.300 HU 125 933 4 9 298
1993249N12253 1993 64 EP MM KENNETH 1993-09-11 15:00:00 TS 17.8800 -120.743 main 1169 1169 P_____________ EP121993 17.8800 -120.743 HU 125 934 4 9 289
1993249N12253 1993 64 EP MM KENNETH 1993-09-11 18:00:00 TS 18.0000 -121.200 125 935 hurdat_epa main 1201 1201 O_____________ hurdat_epa EP121993 18.0000 -121.200 HU 125 935 4 8 283
1993249N12253 1993 64 EP MM KENNETH 1993-09-11 21:00:00 TS 18.0648 -121.600 main 1226 1226 P_____________ EP121993 18.0648 -121.600 HU 122 937 4 8 277
1993249N12253 1993 64 EP MM KENNETH 1993-09-12 00:00:00 TS 18.1000 -122.000 120 939 hurdat_epa main 1259 1259 O_____________ hurdat_epa EP121993 18.1000 -122.000 HU 120 939 4 8 277
1993249N12253 1993 64 EP MM KENNETH 1993-09-12 03:00:00 TS 18.1650 -122.450 main 1286 1286 P_____________ EP121993 18.1650 -122.450 HU 115 943 4 9 277
1993249N12253 1993 64 EP MM KENNETH 1993-09-12 06:00:00 TS 18.2000 -122.900 110 948 hurdat_epa main 1329 1329 O_____________ hurdat_epa EP121993 18.2000 -122.900 HU 110 948 3 8 269
1993249N12253 1993 64 EP MM KENNETH 1993-09-12 09:00:00 TS 18.1573 -123.300 main 1357 1357 P_____________ EP121993 18.1573 -123.300 HU 105 954 3 8 263
1993249N12253 1993 64 EP MM KENNETH 1993-09-12 12:00:00 TS 18.1000 -123.700 100 960 hurdat_epa main 1393 1393 O_____________ hurdat_epa EP121993 18.1000 -123.700 HU 100 960 3 8 265
1993249N12253 1993 64 EP MM KENNETH 1993-09-12 15:00:00 TS 18.0924 -124.135 main 1419 1419 P_____________ EP121993 18.0924 -124.135 HU 97 963 3 9 270
1993249N12253 1993 64 EP MM KENNETH 1993-09-12 18:00:00 TS 18.1000 -124.600 95 966 hurdat_epa main 1453 1453 O_____________ hurdat_epa EP121993 18.1000 -124.600 HU 95 966 2 9 270
1993249N12253 1993 64 EP MM KENNETH 1993-09-12 21:00:00 TS 18.0924 -125.093 main 1488 1488 P_____________ EP121993 18.0924 -125.093 HU 92 967 2 10 270
1993249N12253 1993 64 EP MM KENNETH 1993-09-13 00:00:00 TS 18.1000 -125.600 90 969 hurdat_epa main 1524 1524 O_____________ hurdat_epa EP121993 18.1000 -125.600 HU 90 969 2 10 273
1993249N12253 1993 64 EP MM KENNETH 1993-09-13 03:00:00 TS 18.1423 -126.092 main 1561 1560 P_____________ EP121993 18.1423 -126.092 HU 90 969 2 10 276
1993249N12253 1993 64 EP MM KENNETH 1993-09-13 06:00:00 TS 18.2000 -126.600 90 970 hurdat_epa main 1591 1591 O_____________ hurdat_epa EP121993 18.2000 -126.600 HU 90 970 2 10 276
1993249N12253 1993 64 EP MM KENNETH 1993-09-13 09:00:00 TS 18.2424 -127.143 main 1629 1629 P_____________ EP121993 18.2424 -127.143 HU 90 970 2 11 275
1993249N12253 1993 64 EP MM KENNETH 1993-09-13 12:00:00 TS 18.3000 -127.700 90 970 hurdat_epa main 1668 1668 O_____________ hurdat_epa EP121993 18.3000 -127.700 HU 90 970 2 11 278
1993249N12253 1993 64 EP MM KENNETH 1993-09-13 15:00:00 TS 18.3849 -128.258 main 1709 1709 P_____________ EP121993 18.3849 -128.258 HU 90 970 2 11 281
1993249N12253 1993 64 EP MM KENNETH 1993-09-13 18:00:00 TS 18.5000 -128.800 90 970 hurdat_epa main 1743 1743 O_____________ hurdat_epa EP121993 18.5000 -128.800 HU 90 970 2 10 284
1993249N12253 1993 64 EP MM KENNETH 1993-09-13 21:00:00 TS 18.6348 -129.308 main 1778 1778 P_____________ EP121993 18.6348 -129.308 HU 87 971 2 10 288
1993249N12253 1993 64 EP MM KENNETH 1993-09-14 00:00:00 TS 18.8000 -129.800 85 972 hurdat_epa main 1806 1806 O_____________ hurdat_epa EP121993 18.8000 -129.800 HU 85 972 2 10 291
1993249N12253 1993 64 EP MM KENNETH 1993-09-14 03:00:00 TS 18.9924 -130.308 main 1836 1836 P_____________ EP121993 18.9924 -130.308 HU 82 974 1 10 293
1993249N12253 1993 64 EP MM KENNETH 1993-09-14 06:00:00 TS 19.2000 -130.800 80 977 hurdat_epa main 1867 1867 O_____________ hurdat_epa EP121993 19.2000 -130.800 HU 80 977 1 10 294
1993249N12253 1993 64 EP MM KENNETH 1993-09-14 09:00:00 TS 19.3923 -131.258 main 1899 1899 P_____________ EP121993 19.3923 -131.258 HU 75 979 1 9 295
1993249N12253 1993 64 EP MM KENNETH 1993-09-14 12:00:00 TS 19.6000 -131.700 70 982 hurdat_epa main 1923 1923 O_____________ hurdat_epa EP121993 19.6000 -131.700 HU 70 982 1 10 298
1993249N12253 1993 64 EP MM KENNETH 1993-09-14 15:00:00 TS 19.8349 -132.150 main 1956 1951 P_____________ EP121993 19.8349 -132.150 HU 67 984 1 10 301
1993249N12253 1993 64 EP MM KENNETH 1993-09-14 18:00:00 TS 20.1000 -132.600 65 987 hurdat_epa main 1976 1976 O_____________ hurdat_epa EP121993 20.1000 -132.600 HU 65 987 1 10 304
1993249N12253 1993 64 EP MM KENNETH 1993-09-14 21:00:00 TS 20.3999 -133.058 main 1993 1984 P_____________ EP121993 20.3999 -133.058 HU 62 989 0 10 305
1993249N12253 1993 64 EP MM KENNETH 1993-09-15 00:00:00 TS 20.7000 -133.500 60 991 hurdat_epa main 1990 1985 O_____________ hurdat_epa EP121993 20.7000 -133.500 TS 60 991 0 10 306
1993249N12253 1993 64 EP MM KENNETH 1993-09-15 03:00:00 TS 20.9648 -133.900 main 1989 1989 P_____________ EP121993 20.9648 -133.900 TS 57 992 0 9 304
1993249N12253 1993 64 EP MM KENNETH 1993-09-15 06:00:00 TS 21.2000 -134.300 55 994 hurdat_epa main 1998 1996 O_____________ hurdat_epa EP121993 21.2000 -134.300 TS 55 994 0 9 300
1993249N12253 1993 64 EP MM KENNETH 1993-09-15 09:00:00 TS 21.4150 -134.750 main 2014 2013 P_____________ EP121993 21.4150 -134.750 TS 52 996 0 9 296
1993249N12253 1993 64 EP MM KENNETH 1993-09-15 12:00:00 TS 21.6000 -135.200 50 998 hurdat_epa main 2025 2011 O_____________ hurdat_epa EP121993 21.6000 -135.200 TS 50 998 0 9 293
1993249N12253 1993 64 EP MM KENNETH 1993-09-15 15:00:00 TS 21.7499 -135.615 main 2011 1972 P_____________ EP121993 21.7499 -135.615 TS 47 999 0 8 292
1993249N12253 1993 64 EP MM KENNETH 1993-09-15 18:00:00 TS 21.9000 -136.000 45 1000 hurdat_epa main 1972 1933 O_____________ hurdat_epa EP121993 21.9000 -136.000 TS 45 1000 0 8 296
1993249N12253 1993 64 EP MM KENNETH 1993-09-15 21:00:00 TS 22.0925 -136.380 main 1933 1904 P_____________ EP121993 22.0925 -136.380 TS 42 1001 0 8 302
1993249N12253 1993 64 EP MM KENNETH 1993-09-16 00:00:00 TS 22.3000 -136.700 40 1003 hurdat_epa main 1904 1885 O_____________ hurdat_epa EP121993 22.3000 -136.700 TS 40 1003 0 7 310
1993249N12253 1993 64 EP MM KENNETH 1993-09-16 03:00:00 TS 22.5074 -136.923 main 1886 1867 P_____________ EP121993 22.5074 -136.923 TS 37 1004 0 5 317
1993249N12253 1993 64 EP MM KENNETH 1993-09-16 06:00:00 TS 22.7000 -137.100 35 1005 hurdat_epa main 1869 1850 O_____________ hurdat_epa EP121993 22.7000 -137.100 TS 35 1005 0 5 315
1993249N12253 1993 64 EP MM KENNETH 1993-09-16 09:00:00 TS 22.8575 -137.308 main 1851 1833 P_____________ EP121993 22.8575 -137.308 TS 32 1005 -1 5 309
1993249N12253 1993 64 EP MM KENNETH 1993-09-16 12:00:00 TS 23.0000 -137.500 30 1006 hurdat_epa main 1833 1815 O_____________ hurdat_epa EP121993 23.0000 -137.500 TD 30 1006 -1 4 312
1993249N12253 1993 64 EP MM KENNETH 1993-09-16 15:00:00 TS 23.1500 -137.665 main 1815 1806 P_____________ EP121993 23.1500 -137.665 TD 30 1006 -1 4 317
1993249N12253 1993 64 EP MM KENNETH 1993-09-16 18:00:00 TS 23.3000 -137.800 30 1007 hurdat_epa main 1808 1800 O_____________ hurdat_epa EP121993 23.3000 -137.800 TD 30 1007 -1 4 324
1993249N12253 1993 64 EP MM KENNETH 1993-09-16 21:00:00 TS 23.4575 -137.908 main 1802 1792 P_____________ EP121993 23.4575 -137.908 TD 30 1007 -1 4 329
1993249N12253 1993 64 EP MM KENNETH 1993-09-17 00:00:00 TS 23.6000 -138.000 30 1008 hurdat_epa main 1795 1787 O_____________ hurdat_epa EP121993 23.6000 -138.000 TD 30 1008 -1 3 323
1993249N12253 1993 64 EP MM KENNETH 1993-09-17 03:00:00 TS 23.6925 -138.100 main 1787 1777 P_____________ EP121993 23.6925 -138.100 TD 27 1008 -1 3 318
1993249N12253 1993 64 EP MM KENNETH 1993-09-17 06:00:00 TS 23.8000 -138.200 25 1008 hurdat_epa main 1779 1772 O_____________ hurdat_epa EP121993 23.8000 -138.200 TD 25 1008 -1 3 330
1993249N12253 1993 64 EP MM KENNETH 1993-09-17 09:00:00 TS 23.9699 -138.278 main 1774 1767 P_____________ EP121993 23.9699 -138.278 TD 25 1008 -1 4 336
1993249N12253 1993 64 EP MM KENNETH 1993-09-17 12:00:00 TS 24.2000 -138.400 25 1009 hurdat_epa main 1770 1756 O_____________ hurdat_epa EP121993 24.2000 -138.400 TD 25 1009 -1 6 329
1993249N12253 1993 64 EP MM KENNETH 1993-09-17 15:00:00 TS 24.4852 -138.620 main 1759 1736 P_____________ EP121993 24.4852 -138.620 TD 22 1009 -1 8 323
1993249N12253 1993 64 EP MM KENNETH 1993-09-17 18:00:00 TS 24.8000 -138.900 20 1009 hurdat_epa main 1739 O_____________ hurdat_epa EP121993 24.8000 -138.900 TD 20 1009 -1 8 321

IBTrACS Databaseについて

本データベースは、米国NOAAが公開する1842年以降の世界の熱帯低気圧のベストトラックデータアーカイブInternational Best Track Archive for Climate Stewardship (IBTrACS)を、ウェブで閲覧しやすい形式に変換したものです。

最終更新日:2021-10-21